sensor_id;sensor_type;location;lat;lon;timestamp;temperature;humidity
7290;DHT22;63176;52.678;13.250;2022-11-20T00:02:25;1.50;99.90
7290;DHT22;63176;52.678;13.250;2022-11-20T00:04:51;1.60;99.90
7290;DHT22;63176;52.678;13.250;2022-11-20T00:07:16;1.40;99.90
7290;DHT22;63176;52.678;13.250;2022-11-20T00:09:42;1.40;99.90
7290;DHT22;63176;52.678;13.250;2022-11-20T00:12:08;1.40;99.90
7290;DHT22;63176;52.678;13.250;2022-11-20T00:14:33;1.40;99.90
7290;DHT22;63176;52.678;13.250;2022-11-20T00:16:59;1.40;99.90
7290;DHT22;63176;52.678;13.250;2022-11-20T00:19:24;1.40;99.90
7290;DHT22;63176;52.678;13.250;2022-11-20T00:21:51;1.40;99.90
7290;DHT22;63176;52.678;13.250;2022-11-20T00:24:19;1.30;99.90
7290;DHT22;63176;52.678;13.250;2022-11-20T00:26:44;1.30;99.90
7290;DHT22;63176;52.678;13.250;2022-11-20T00:29:11;1.50;99.90
7290;DHT22;63176;52.678;13.250;2022-11-20T00:31:37;1.40;99.90
7290;DHT22;63176;52.678;13.250;2022-11-20T00:34:02;1.40;99.90
7290;DHT22;63176;52.678;13.250;2022-11-20T00:36:31;1.40;99.90
7290;DHT22;63176;52.678;13.250;2022-11-20T00:38:58;1.40;99.90
7290;DHT22;63176;52.678;13.250;2022-11-20T00:41:25;1.30;99.90
7290;DHT22;63176;52.678;13.250;2022-11-20T00:43:53;1.30;99.90
7290;DHT22;63176;52.678;13.250;2022-11-20T00:46:22;1.20;99.90
7290;DHT22;63176;52.678;13.250;2022-11-20T00:48:48;1.30;99.90
7290;DHT22;63176;52.678;13.250;2022-11-20T00:51:16;1.20;99.90
7290;DHT22;63176;52.678;13.250;2022-11-20T00:53:43;1.20;99.90
7290;DHT22;63176;52.678;13.250;2022-11-20T00:56:14;1.20;99.90
7290;DHT22;63176;52.678;13.250;2022-11-20T00:58:41;1.20;99.90
7290;DHT22;63176;52.678;13.250;2022-11-20T01:01:22;1.20;99.90
7290;DHT22;63176;52.678;13.250;2022-11-20T01:03:50;1.20;99.90
7290;DHT22;63176;52.678;13.250;2022-11-20T01:08:46;1.20;99.90
7290;DHT22;63176;52.678;13.250;2022-11-20T01:11:22;1.20;99.90
7290;DHT22;63176;52.678;13.250;2022-11-20T01:13:49;1.20;99.90
7290;DHT22;63176;52.678;13.250;2022-11-20T01:18:44;1.30;99.90
7290;DHT22;63176;52.678;13.250;2022-11-20T01:21:15;1.30;99.90
7290;DHT22;63176;52.678;13.250;2022-11-20T01:23:42;1.20;99.90
7290;DHT22;63176;52.678;13.250;2022-11-20T01:26:12;1.20;99.90
7290;DHT22;63176;52.678;13.250;2022-11-20T01:28:39;1.20;99.90
7290;DHT22;63176;52.678;13.250;2022-11-20T01:31:15;1.20;99.90
7290;DHT22;63176;52.678;13.250;2022-11-20T01:33:41;1.20;99.90
7290;DHT22;63176;52.678;13.250;2022-11-20T01:36:08;1.30;99.90
7290;DHT22;63176;52.678;13.250;2022-11-20T01:38:34;1.30;99.90
7290;DHT22;63176;52.678;13.250;2022-11-20T01:41:00;1.30;99.90
7290;DHT22;63176;52.678;13.250;2022-11-20T01:43:27;1.20;99.90
7290;DHT22;63176;52.678;13.250;2022-11-20T01:46:08;1.20;99.90
7290;DHT22;63176;52.678;13.250;2022-11-20T01:53:53;1.30;99.90
7290;DHT22;63176;52.678;13.250;2022-11-20T01:56:19;1.30;99.90
7290;DHT22;63176;52.678;13.250;2022-11-20T01:58:54;1.30;99.90
7290;DHT22;63176;52.678;13.250;2022-11-20T02:01:21;1.30;99.90
7290;DHT22;63176;52.678;13.250;2022-11-20T02:03:47;1.30;99.90
7290;DHT22;63176;52.678;13.250;2022-11-20T02:06:23;1.20;99.90
7290;DHT22;63176;52.678;13.250;2022-11-20T02:08:50;1.20;99.90
7290;DHT22;63176;52.678;13.250;2022-11-20T02:11:15;1.20;99.90
7290;DHT22;63176;52.678;13.250;2022-11-20T02:13:41;1.20;99.90
7290;DHT22;63176;52.678;13.250;2022-11-20T02:18:40;1.10;99.90
7290;DHT22;63176;52.678;13.250;2022-11-20T02:21:13;1.10;99.90
7290;DHT22;63176;52.678;13.250;2022-11-20T02:26:25;1.10;99.90
7290;DHT22;63176;52.678;13.250;2022-11-20T02:28:52;1.10;99.90
7290;DHT22;63176;52.678;13.250;2022-11-20T02:31:17;1.10;99.90
7290;DHT22;63176;52.678;13.250;2022-11-20T02:33:43;1.20;99.90
7290;DHT22;63176;52.678;13.250;2022-11-20T02:36:11;1.10;99.90
7290;DHT22;63176;52.678;13.250;2022-11-20T02:38:39;1.10;99.90
7290;DHT22;63176;52.678;13.250;2022-11-20T02:41:05;1.10;99.90
7290;DHT22;63176;52.678;13.250;2022-11-20T02:43:30;1.10;99.90
7290;DHT22;63176;52.678;13.250;2022-11-20T02:45:56;1.20;99.90
7290;DHT22;63176;52.678;13.250;2022-11-20T02:48:22;1.00;99.90
7290;DHT22;63176;52.678;13.250;2022-11-20T02:50:47;1.10;99.90
7290;DHT22;63176;52.678;13.250;2022-11-20T02:53:13;1.10;99.90
7290;DHT22;63176;52.678;13.250;2022-11-20T02:55:39;1.10;99.90
7290;DHT22;63176;52.678;13.250;2022-11-20T02:58:04;1.10;99.90
7290;DHT22;63176;52.678;13.250;2022-11-20T03:00:30;1.10;99.90
7290;DHT22;63176;52.678;13.250;2022-11-20T03:02:57;1.00;99.90
7290;DHT22;63176;52.678;13.250;2022-11-20T03:05:22;1.00;99.90
7290;DHT22;63176;52.678;13.250;2022-11-20T03:07:48;1.00;99.90
7290;DHT22;63176;52.678;13.250;2022-11-20T03:10:14;1.10;99.90
7290;DHT22;63176;52.678;13.250;2022-11-20T03:12:39;1.20;99.90
7290;DHT22;63176;52.678;13.250;2022-11-20T03:15:05;1.10;99.90
7290;DHT22;63176;52.678;13.250;2022-11-20T03:17:31;1.10;99.90
7290;DHT22;63176;52.678;13.250;2022-11-20T03:19:57;1.10;99.90
7290;DHT22;63176;52.678;13.250;2022-11-20T03:22:22;1.00;99.90
7290;DHT22;63176;52.678;13.250;2022-11-20T03:24:48;1.10;99.90
7290;DHT22;63176;52.678;13.250;2022-11-20T03:27:13;1.10;99.90
7290;DHT22;63176;52.678;13.250;2022-11-20T03:29:39;1.10;99.90
7290;DHT22;63176;52.678;13.250;2022-11-20T03:32:05;1.10;99.90
7290;DHT22;63176;52.678;13.250;2022-11-20T03:34:30;1.10;99.90
7290;DHT22;63176;52.678;13.250;2022-11-20T03:36:56;1.10;99.90
7290;DHT22;63176;52.678;13.250;2022-11-20T03:39:22;1.10;99.90
7290;DHT22;63176;52.678;13.250;2022-11-20T03:41:47;1.10;99.90
7290;DHT22;63176;52.678;13.250;2022-11-20T03:44:13;1.20;99.90
7290;DHT22;63176;52.678;13.250;2022-11-20T03:46:38;1.20;99.90
7290;DHT22;63176;52.678;13.250;2022-11-20T03:49:05;1.20;99.90
7290;DHT22;63176;52.678;13.250;2022-11-20T03:51:33;1.20;99.90
7290;DHT22;63176;52.678;13.250;2022-11-20T03:54:02;1.10;99.90
7290;DHT22;63176;52.678;13.250;2022-11-20T03:56:34;1.00;99.90
7290;DHT22;63176;52.678;13.250;2022-11-20T03:59:00;1.00;99.90
7290;DHT22;63176;52.678;13.250;2022-11-20T04:01:33;1.10;99.90
7290;DHT22;63176;52.678;13.250;2022-11-20T04:03:59;1.00;99.90
7290;DHT22;63176;52.678;13.250;2022-11-20T04:06:33;1.00;99.90
7290;DHT22;63176;52.678;13.250;2022-11-20T04:08:59;1.00;99.90
7290;DHT22;63176;52.678;13.250;2022-11-20T04:13:53;1.10;99.90
7290;DHT22;63176;52.678;13.250;2022-11-20T04:16:20;1.00;99.90
7290;DHT22;63176;52.678;13.250;2022-11-20T04:18:46;1.00;99.90
7290;DHT22;63176;52.678;13.250;2022-11-20T04:21:12;1.00;99.90
7290;DHT22;63176;52.678;13.250;2022-11-20T04:23:38;1.00;99.90
7290;DHT22;63176;52.678;13.250;2022-11-20T04:26:09;0.90;99.90
7290;DHT22;63176;52.678;13.250;2022-11-20T04:28:35;0.90;99.90
7290;DHT22;63176;52.678;13.250;2022-11-20T04:31:09;0.90;99.90
7290;DHT22;63176;52.678;13.250;2022-11-20T04:33:36;0.90;99.90
7290;DHT22;63176;52.678;13.250;2022-11-20T04:36:06;0.90;99.90
7290;DHT22;63176;52.678;13.250;2022-11-20T04:38:32;0.80;99.90
7290;DHT22;63176;52.678;13.250;2022-11-20T04:41:00;0.80;99.90
7290;DHT22;63176;52.678;13.250;2022-11-20T04:43:26;0.90;99.90
7290;DHT22;63176;52.678;13.250;2022-11-20T04:45:52;0.90;99.90
7290;DHT22;63176;52.678;13.250;2022-11-20T04:48:18;0.90;99.90
7290;DHT22;63176;52.678;13.250;2022-11-20T04:50:44;0.90;99.90
7290;DHT22;63176;52.678;13.250;2022-11-20T04:53:09;0.90;99.90
7290;DHT22;63176;52.678;13.250;2022-11-20T04:55:35;0.90;99.90
7290;DHT22;63176;52.678;13.250;2022-11-20T04:58:00;0.80;99.90
7290;DHT22;63176;52.678;13.250;2022-11-20T05:00:26;0.80;99.90
7290;DHT22;63176;52.678;13.250;2022-11-20T05:02:51;0.80;99.90
7290;DHT22;63176;52.678;13.250;2022-11-20T05:05:17;0.80;99.90
7290;DHT22;63176;52.678;13.250;2022-11-20T05:07:43;0.80;99.90
7290;DHT22;63176;52.678;13.250;2022-11-20T05:10:09;0.80;99.90
7290;DHT22;63176;52.678;13.250;2022-11-20T05:12:34;0.80;99.90
7290;DHT22;63176;52.678;13.250;2022-11-20T05:15:00;0.80;99.90
7290;DHT22;63176;52.678;13.250;2022-11-20T05:17:26;0.80;99.90
7290;DHT22;63176;52.678;13.250;2022-11-20T05:19:51;0.80;99.90
7290;DHT22;63176;52.678;13.250;2022-11-20T05:22:17;0.80;99.90
7290;DHT22;63176;52.678;13.250;2022-11-20T05:24:42;0.80;99.90
7290;DHT22;63176;52.678;13.250;2022-11-20T05:27:08;0.80;99.90
7290;DHT22;63176;52.678;13.250;2022-11-20T05:29:34;0.80;99.90
7290;DHT22;63176;52.678;13.250;2022-11-20T05:31:59;0.80;99.90
7290;DHT22;63176;52.678;13.250;2022-11-20T05:34:25;0.80;99.90
7290;DHT22;63176;52.678;13.250;2022-11-20T05:36:50;0.80;99.90
7290;DHT22;63176;52.678;13.250;2022-11-20T05:39:16;0.80;99.90
7290;DHT22;63176;52.678;13.250;2022-11-20T05:41:42;0.80;99.90
7290;DHT22;63176;52.678;13.250;2022-11-20T05:44:10;0.80;99.90
7290;DHT22;63176;52.678;13.250;2022-11-20T05:46:36;0.80;99.90
7290;DHT22;63176;52.678;13.250;2022-11-20T05:49:02;0.80;99.90
7290;DHT22;63176;52.678;13.250;2022-11-20T05:51:28;0.80;99.90
7290;DHT22;63176;52.678;13.250;2022-11-20T05:53:55;0.80;99.90
7290;DHT22;63176;52.678;13.250;2022-11-20T05:56:22;0.70;99.90
7290;DHT22;63176;52.678;13.250;2022-11-20T05:58:48;0.70;99.90
7290;DHT22;63176;52.678;13.250;2022-11-20T06:01:20;0.70;99.90
7290;DHT22;63176;52.678;13.250;2022-11-20T06:03:46;0.80;99.90
7290;DHT22;63176;52.678;13.250;2022-11-20T06:06:13;0.80;99.90
7290;DHT22;63176;52.678;13.250;2022-11-20T06:08:39;0.80;99.90
7290;DHT22;63176;52.678;13.250;2022-11-20T06:11:07;0.80;99.90
7290;DHT22;63176;52.678;13.250;2022-11-20T06:13:34;0.80;99.90
7290;DHT22;63176;52.678;13.250;2022-11-20T06:15:59;0.80;99.90
7290;DHT22;63176;52.678;13.250;2022-11-20T06:18:26;0.80;99.90
7290;DHT22;63176;52.678;13.250;2022-11-20T06:21:04;0.80;99.90
7290;DHT22;63176;52.678;13.250;2022-11-20T06:23:31;0.80;99.90
7290;DHT22;63176;52.678;13.250;2022-11-20T06:26:02;0.80;99.90
7290;DHT22;63176;52.678;13.250;2022-11-20T06:28:28;0.80;99.90
7290;DHT22;63176;52.678;13.250;2022-11-20T06:30:53;0.80;99.90
7290;DHT22;63176;52.678;13.250;2022-11-20T06:33:19;0.80;99.90
7290;DHT22;63176;52.678;13.250;2022-11-20T06:35:45;0.80;99.90
7290;DHT22;63176;52.678;13.250;2022-11-20T06:38:10;0.80;99.90
7290;DHT22;63176;52.678;13.250;2022-11-20T06:40:36;0.80;99.90
7290;DHT22;63176;52.678;13.250;2022-11-20T06:43:04;0.90;99.90
7290;DHT22;63176;52.678;13.250;2022-11-20T06:45:30;0.90;99.90
7290;DHT22;63176;52.678;13.250;2022-11-20T06:47:57;0.90;99.90
7290;DHT22;63176;52.678;13.250;2022-11-20T06:50:23;1.00;99.90
7290;DHT22;63176;52.678;13.250;2022-11-20T06:52:49;1.00;99.90
7290;DHT22;63176;52.678;13.250;2022-11-20T06:55:14;1.00;99.90
7290;DHT22;63176;52.678;13.250;2022-11-20T06:57:40;1.00;99.90
7290;DHT22;63176;52.678;13.250;2022-11-20T07:00:06;1.10;99.90
7290;DHT22;63176;52.678;13.250;2022-11-20T07:02:32;1.10;99.90
7290;DHT22;63176;52.678;13.250;2022-11-20T07:04:57;1.10;99.90
7290;DHT22;63176;52.678;13.250;2022-11-20T07:07:23;1.10;99.90
7290;DHT22;63176;52.678;13.250;2022-11-20T07:09:49;1.00;99.90
7290;DHT22;63176;52.678;13.250;2022-11-20T07:12:14;1.00;99.90
7290;DHT22;63176;52.678;13.250;2022-11-20T07:14:40;1.00;99.90
7290;DHT22;63176;52.678;13.250;2022-11-20T07:17:06;1.00;99.90
7290;DHT22;63176;52.678;13.250;2022-11-20T07:19:31;1.20;99.90
7290;DHT22;63176;52.678;13.250;2022-11-20T07:21:57;1.00;99.90
7290;DHT22;63176;52.678;13.250;2022-11-20T07:24:22;1.00;99.90
7290;DHT22;63176;52.678;13.250;2022-11-20T07:26:48;1.10;99.90
7290;DHT22;63176;52.678;13.250;2022-11-20T07:29:15;1.00;99.90
7290;DHT22;63176;52.678;13.250;2022-11-20T07:31:42;1.10;99.90
7290;DHT22;63176;52.678;13.250;2022-11-20T07:34:08;1.10;99.90
7290;DHT22;63176;52.678;13.250;2022-11-20T07:36:34;1.10;99.90
7290;DHT22;63176;52.678;13.250;2022-11-20T07:38:59;1.10;99.90
7290;DHT22;63176;52.678;13.250;2022-11-20T07:41:25;1.30;99.90
7290;DHT22;63176;52.678;13.250;2022-11-20T07:43:50;1.10;99.90
7290;DHT22;63176;52.678;13.250;2022-11-20T07:46:16;1.10;99.90
7290;DHT22;63176;52.678;13.250;2022-11-20T07:48:42;1.10;99.90
7290;DHT22;63176;52.678;13.250;2022-11-20T07:51:07;1.10;99.90
7290;DHT22;63176;52.678;13.250;2022-11-20T07:53:33;1.10;99.90
7290;DHT22;63176;52.678;13.250;2022-11-20T07:56:02;1.20;99.90
7290;DHT22;63176;52.678;13.250;2022-11-20T07:58:32;1.20;99.90
7290;DHT22;63176;52.678;13.250;2022-11-20T08:01:04;1.30;99.90
7290;DHT22;63176;52.678;13.250;2022-11-20T08:03:30;1.30;99.90
7290;DHT22;63176;52.678;13.250;2022-11-20T08:06:01;1.30;99.90
7290;DHT22;63176;52.678;13.250;2022-11-20T08:08:27;1.30;99.90
7290;DHT22;63176;52.678;13.250;2022-11-20T08:10:54;1.30;99.90
7290;DHT22;63176;52.678;13.250;2022-11-20T08:13:39;1.40;99.90
7290;DHT22;63176;52.678;13.250;2022-11-20T08:16:23;1.40;99.90
7290;DHT22;63176;52.678;13.250;2022-11-20T08:18:49;1.30;99.90
7290;DHT22;63176;52.678;13.250;2022-11-20T08:21:15;1.30;99.90
7290;DHT22;63176;52.678;13.250;2022-11-20T08:23:40;1.40;99.90
7290;DHT22;63176;52.678;13.250;2022-11-20T08:26:06;1.40;99.90
7290;DHT22;63176;52.678;13.250;2022-11-20T08:28:32;1.40;99.90
7290;DHT22;63176;52.678;13.250;2022-11-20T08:31:01;1.50;99.90
7290;DHT22;63176;52.678;13.250;2022-11-20T08:33:27;1.50;99.90
7290;DHT22;63176;52.678;13.250;2022-11-20T08:35:53;1.60;99.90
7290;DHT22;63176;52.678;13.250;2022-11-20T08:38:18;1.60;99.90
7290;DHT22;63176;52.678;13.250;2022-11-20T08:40:44;1.70;99.90
7290;DHT22;63176;52.678;13.250;2022-11-20T08:43:30;1.70;99.90
7290;DHT22;63176;52.678;13.250;2022-11-20T08:45:56;1.70;99.90
7290;DHT22;63176;52.678;13.250;2022-11-20T08:48:22;1.70;99.90
7290;DHT22;63176;52.678;13.250;2022-11-20T08:50:48;2.00;99.90
7290;DHT22;63176;52.678;13.250;2022-11-20T08:53:14;1.80;99.90
7290;DHT22;63176;52.678;13.250;2022-11-20T08:55:39;1.70;99.90
7290;DHT22;63176;52.678;13.250;2022-11-20T08:58:06;1.70;99.90
7290;DHT22;63176;52.678;13.250;2022-11-20T09:00:33;1.80;99.90
7290;DHT22;63176;52.678;13.250;2022-11-20T09:02:58;1.70;99.90
7290;DHT22;63176;52.678;13.250;2022-11-20T09:05:26;1.70;99.90
7290;DHT22;63176;52.678;13.250;2022-11-20T09:07:55;1.70;99.90
7290;DHT22;63176;52.678;13.250;2022-11-20T09:10:21;1.80;99.90
7290;DHT22;63176;52.678;13.250;2022-11-20T09:12:48;1.80;99.90
7290;DHT22;63176;52.678;13.250;2022-11-20T09:15:14;1.80;99.90
7290;DHT22;63176;52.678;13.250;2022-11-20T09:17:40;1.80;99.90
7290;DHT22;63176;52.678;13.250;2022-11-20T09:20:06;1.90;99.90
7290;DHT22;63176;52.678;13.250;2022-11-20T09:22:32;1.90;99.90
7290;DHT22;63176;52.678;13.250;2022-11-20T09:24:58;1.90;99.90
7290;DHT22;63176;52.678;13.250;2022-11-20T09:27:23;2.10;99.90
7290;DHT22;63176;52.678;13.250;2022-11-20T09:29:49;2.10;99.90
7290;DHT22;63176;52.678;13.250;2022-11-20T09:32:15;1.90;99.90
7290;DHT22;63176;52.678;13.250;2022-11-20T09:34:41;2.00;99.90
7290;DHT22;63176;52.678;13.250;2022-11-20T09:37:07;2.10;99.90
7290;DHT22;63176;52.678;13.250;2022-11-20T09:39:32;2.00;99.90
7290;DHT22;63176;52.678;13.250;2022-11-20T09:42:32;2.00;99.90
7290;DHT22;63176;52.678;13.250;2022-11-20T09:48:15;2.20;99.90
7290;DHT22;63176;52.678;13.250;2022-11-20T09:50:56;2.20;99.90
7290;DHT22;63176;52.678;13.250;2022-11-20T09:56:08;2.10;99.90
7290;DHT22;63176;52.678;13.250;2022-11-20T10:01:16;2.10;99.90
7290;DHT22;63176;52.678;13.250;2022-11-20T10:03:53;2.20;99.90
7290;DHT22;63176;52.678;13.250;2022-11-20T10:06:24;2.10;99.90
7290;DHT22;63176;52.678;13.250;2022-11-20T10:09:16;2.10;99.90
7290;DHT22;63176;52.678;13.250;2022-11-20T10:12:04;2.10;99.90
7290;DHT22;63176;52.678;13.250;2022-11-20T10:18:30;2.00;99.90
7290;DHT22;63176;52.678;13.250;2022-11-20T10:23:30;2.00;99.90
7290;DHT22;63176;52.678;13.250;2022-11-20T10:28:40;2.00;99.90
7290;DHT22;63176;52.678;13.250;2022-11-20T10:31:32;2.00;99.90
7290;DHT22;63176;52.678;13.250;2022-11-20T10:34:03;1.90;99.90
7290;DHT22;63176;52.678;13.250;2022-11-20T10:36:37;1.90;99.90
7290;DHT22;63176;52.678;13.250;2022-11-20T10:39:18;2.20;99.90
7290;DHT22;63176;52.678;13.250;2022-11-20T10:41:50;2.10;99.90
7290;DHT22;63176;52.678;13.250;2022-11-20T10:44:20;2.10;99.90
7290;DHT22;63176;52.678;13.250;2022-11-20T10:47:08;2.20;99.90
7290;DHT22;63176;52.678;13.250;2022-11-20T10:49:35;2.20;99.90
7290;DHT22;63176;52.678;13.250;2022-11-20T10:52:15;2.30;99.90
7290;DHT22;63176;52.678;13.250;2022-11-20T10:54:49;2.30;99.90
7290;DHT22;63176;52.678;13.250;2022-11-20T11:00:07;2.30;99.90
7290;DHT22;63176;52.678;13.250;2022-11-20T11:02:50;2.30;99.90
7290;DHT22;63176;52.678;13.250;2022-11-20T11:05:36;2.20;99.90
7290;DHT22;63176;52.678;13.250;2022-11-20T11:08:04;2.10;99.90
7290;DHT22;63176;52.678;13.250;2022-11-20T11:10:51;2.10;99.90
7290;DHT22;63176;52.678;13.250;2022-11-20T11:13:27;2.20;99.90
7290;DHT22;63176;52.678;13.250;2022-11-20T11:15:54;2.10;99.90
7290;DHT22;63176;52.678;13.250;2022-11-20T11:18:37;2.30;99.90
7290;DHT22;63176;52.678;13.250;2022-11-20T11:21:04;2.00;99.90
7290;DHT22;63176;52.678;13.250;2022-11-20T11:23:41;1.90;99.90
7290;DHT22;63176;52.678;13.250;2022-11-20T11:26:20;1.90;99.90
7290;DHT22;63176;52.678;13.250;2022-11-20T11:28:59;2.00;99.90
7290;DHT22;63176;52.678;13.250;2022-11-20T11:31:35;1.90;99.90
7290;DHT22;63176;52.678;13.250;2022-11-20T11:34:14;1.80;99.90
7290;DHT22;63176;52.678;13.250;2022-11-20T11:36:41;2.00;99.90
7290;DHT22;63176;52.678;13.250;2022-11-20T11:39:18;1.80;99.90
7290;DHT22;63176;52.678;13.250;2022-11-20T11:41:45;1.80;99.90
7290;DHT22;63176;52.678;13.250;2022-11-20T11:44:21;1.80;99.90
7290;DHT22;63176;52.678;13.250;2022-11-20T11:47:11;1.80;99.90
7290;DHT22;63176;52.678;13.250;2022-11-20T11:49:43;1.80;99.90
7290;DHT22;63176;52.678;13.250;2022-11-20T11:52:17;1.90;99.90
7290;DHT22;63176;52.678;13.250;2022-11-20T11:54:52;1.80;99.90
7290;DHT22;63176;52.678;13.250;2022-11-20T12:00:15;2.00;99.90
7290;DHT22;63176;52.678;13.250;2022-11-20T12:05:34;2.10;99.90
7290;DHT22;63176;52.678;13.250;2022-11-20T12:08:09;2.30;99.90
7290;DHT22;63176;52.678;13.250;2022-11-20T12:11:00;2.30;99.90
7290;DHT22;63176;52.678;13.250;2022-11-20T12:13:37;2.30;99.90
7290;DHT22;63176;52.678;13.250;2022-11-20T12:16:07;2.30;99.90
7290;DHT22;63176;52.678;13.250;2022-11-20T12:18:35;2.40;99.90
7290;DHT22;63176;52.678;13.250;2022-11-20T12:26:37;2.60;99.90
7290;DHT22;63176;52.678;13.250;2022-11-20T12:29:28;2.70;99.90
7290;DHT22;63176;52.678;13.250;2022-11-20T12:34:52;2.80;99.90
7290;DHT22;63176;52.678;13.250;2022-11-20T12:49:27;2.50;99.90
7290;DHT22;63176;52.678;13.250;2022-11-20T12:54:53;2.50;99.90
7290;DHT22;63176;52.678;13.250;2022-11-20T12:57:38;2.40;99.90
7290;DHT22;63176;52.678;13.250;2022-11-20T13:00:15;2.50;99.90
7290;DHT22;63176;52.678;13.250;2022-11-20T13:03:16;2.50;99.90
7290;DHT22;63176;52.678;13.250;2022-11-20T13:05:59;2.60;99.90
7290;DHT22;63176;52.678;13.250;2022-11-20T13:08:40;2.70;99.90
7290;DHT22;63176;52.678;13.250;2022-11-20T13:11:32;2.60;99.90
7290;DHT22;63176;52.678;13.250;2022-11-20T13:16:54;2.70;99.90
7290;DHT22;63176;52.678;13.250;2022-11-20T13:19:23;2.40;99.90
7290;DHT22;63176;52.678;13.250;2022-11-20T13:21:50;2.40;99.90
7290;DHT22;63176;52.678;13.250;2022-11-20T13:26:44;2.30;99.90
7290;DHT22;63176;52.678;13.250;2022-11-20T13:29:18;2.40;99.90
7290;DHT22;63176;52.678;13.250;2022-11-20T13:31:46;2.30;99.90
7290;DHT22;63176;52.678;13.250;2022-11-20T13:34:22;2.20;99.90
7290;DHT22;63176;52.678;13.250;2022-11-20T13:36:51;2.30;99.90
7290;DHT22;63176;52.678;13.250;2022-11-20T13:39:28;2.10;99.90
7290;DHT22;63176;52.678;13.250;2022-11-20T13:41:57;2.10;99.90
7290;DHT22;63176;52.678;13.250;2022-11-20T13:44:29;2.40;99.90
7290;DHT22;63176;52.678;13.250;2022-11-20T13:46:55;2.10;99.90
7290;DHT22;63176;52.678;13.250;2022-11-20T13:49:29;2.10;99.90
7290;DHT22;63176;52.678;13.250;2022-11-20T14:00:16;2.00;99.90
7290;DHT22;63176;52.678;13.250;2022-11-20T14:02:43;2.00;99.90
7290;DHT22;63176;52.678;13.250;2022-11-20T14:05:28;2.00;99.90
7290;DHT22;63176;52.678;13.250;2022-11-20T14:07:57;2.00;99.90
7290;DHT22;63176;52.678;13.250;2022-11-20T14:10:27;1.90;99.90
7290;DHT22;63176;52.678;13.250;2022-11-20T14:12:53;1.80;99.90
7290;DHT22;63176;52.678;13.250;2022-11-20T14:15:32;1.80;99.90
7290;DHT22;63176;52.678;13.250;2022-11-20T14:17:59;1.90;99.90
7290;DHT22;63176;52.678;13.250;2022-11-20T14:20:28;1.90;99.90
7290;DHT22;63176;52.678;13.250;2022-11-20T14:22:55;2.00;99.90
7290;DHT22;63176;52.678;13.250;2022-11-20T14:25:25;1.90;99.90
7290;DHT22;63176;52.678;13.250;2022-11-20T14:27:58;2.00;99.90
7290;DHT22;63176;52.678;13.250;2022-11-20T14:30:42;2.00;99.90
7290;DHT22;63176;52.678;13.250;2022-11-20T14:33:11;2.00;99.90
7290;DHT22;63176;52.678;13.250;2022-11-20T14:35:46;2.00;99.90
7290;DHT22;63176;52.678;13.250;2022-11-20T14:38:14;2.00;99.90
7290;DHT22;63176;52.678;13.250;2022-11-20T14:40:40;2.00;99.90
7290;DHT22;63176;52.678;13.250;2022-11-20T14:43:26;2.10;99.90
7290;DHT22;63176;52.678;13.250;2022-11-20T14:46:04;1.90;99.90
7290;DHT22;63176;52.678;13.250;2022-11-20T14:51:04;1.80;99.90
7290;DHT22;63176;52.678;13.250;2022-11-20T14:53:29;1.80;99.90
7290;DHT22;63176;52.678;13.250;2022-11-20T14:55:59;2.00;99.90
7290;DHT22;63176;52.678;13.250;2022-11-20T14:58:27;1.90;99.90
7290;DHT22;63176;52.678;13.250;2022-11-20T15:01:05;1.80;99.90
7290;DHT22;63176;52.678;13.250;2022-11-20T15:03:38;1.80;99.90
7290;DHT22;63176;52.678;13.250;2022-11-20T15:06:06;1.80;99.90
7290;DHT22;63176;52.678;13.250;2022-11-20T15:08:33;1.80;99.90
7290;DHT22;63176;52.678;13.250;2022-11-20T15:10:59;1.80;99.90
7290;DHT22;63176;52.678;13.250;2022-11-20T15:13:36;1.80;99.90
7290;DHT22;63176;52.678;13.250;2022-11-20T15:16:08;1.80;99.90
7290;DHT22;63176;52.678;13.250;2022-11-20T15:18:40;1.70;99.90
7290;DHT22;63176;52.678;13.250;2022-11-20T15:21:17;1.80;99.90
7290;DHT22;63176;52.678;13.250;2022-11-20T15:23:43;1.80;99.90
7290;DHT22;63176;52.678;13.250;2022-11-20T15:26:11;1.80;99.90
7290;DHT22;63176;52.678;13.250;2022-11-20T15:28:40;1.80;99.90
7290;DHT22;63176;52.678;13.250;2022-11-20T15:31:06;2.00;99.90
7290;DHT22;63176;52.678;13.250;2022-11-20T15:33:33;1.80;99.90
7290;DHT22;63176;52.678;13.250;2022-11-20T15:35:59;1.80;99.90
7290;DHT22;63176;52.678;13.250;2022-11-20T15:38:25;1.80;99.90
7290;DHT22;63176;52.678;13.250;2022-11-20T15:40:51;1.80;99.90
7290;DHT22;63176;52.678;13.250;2022-11-20T15:43:16;2.00;99.90
7290;DHT22;63176;52.678;13.250;2022-11-20T15:45:53;1.80;99.90
7290;DHT22;63176;52.678;13.250;2022-11-20T15:48:31;1.80;99.90
7290;DHT22;63176;52.678;13.250;2022-11-20T15:51:19;1.80;99.90
7290;DHT22;63176;52.678;13.250;2022-11-20T15:53:46;1.80;99.90
7290;DHT22;63176;52.678;13.250;2022-11-20T15:56:13;1.80;99.90
7290;DHT22;63176;52.678;13.250;2022-11-20T15:58:39;1.80;99.90
7290;DHT22;63176;52.678;13.250;2022-11-20T16:01:09;1.80;99.90
7290;DHT22;63176;52.678;13.250;2022-11-20T16:03:35;1.80;99.90
7290;DHT22;63176;52.678;13.250;2022-11-20T16:06:01;1.70;99.90
7290;DHT22;63176;52.678;13.250;2022-11-20T16:08:26;1.80;99.90
7290;DHT22;63176;52.678;13.250;2022-11-20T16:10:52;1.70;99.90
7290;DHT22;63176;52.678;13.250;2022-11-20T16:13:17;1.70;99.90
7290;DHT22;63176;52.678;13.250;2022-11-20T16:16:07;1.60;99.90
7290;DHT22;63176;52.678;13.250;2022-11-20T16:18:36;1.60;99.90
7290;DHT22;63176;52.678;13.250;2022-11-20T16:21:02;1.70;99.90
7290;DHT22;63176;52.678;13.250;2022-11-20T16:23:28;1.60;99.90
7290;DHT22;63176;52.678;13.250;2022-11-20T16:25:54;1.60;99.90
7290;DHT22;63176;52.678;13.250;2022-11-20T16:28:19;1.80;99.90
7290;DHT22;63176;52.678;13.250;2022-11-20T16:30:46;1.60;99.90
7290;DHT22;63176;52.678;13.250;2022-11-20T16:33:14;1.60;99.90
7290;DHT22;63176;52.678;13.250;2022-11-20T16:35:40;1.60;99.90
7290;DHT22;63176;52.678;13.250;2022-11-20T16:38:05;1.80;99.90
7290;DHT22;63176;52.678;13.250;2022-11-20T16:40:31;1.60;99.90
7290;DHT22;63176;52.678;13.250;2022-11-20T16:42:57;1.60;99.90
7290;DHT22;63176;52.678;13.250;2022-11-20T16:45:31;1.50;99.90
7290;DHT22;63176;52.678;13.250;2022-11-20T16:47:56;1.70;99.90
7290;DHT22;63176;52.678;13.250;2022-11-20T16:50:22;1.80;99.90
7290;DHT22;63176;52.678;13.250;2022-11-20T16:52:48;1.50;99.90
7290;DHT22;63176;52.678;13.250;2022-11-20T16:55:13;1.50;99.90
7290;DHT22;63176;52.678;13.250;2022-11-20T16:57:39;1.70;99.90
7290;DHT22;63176;52.678;13.250;2022-11-20T17:00:07;1.60;99.90
7290;DHT22;63176;52.678;13.250;2022-11-20T17:02:33;1.50;99.90
7290;DHT22;63176;52.678;13.250;2022-11-20T17:04:58;1.50;99.90
7290;DHT22;63176;52.678;13.250;2022-11-20T17:07:24;1.50;99.90
7290;DHT22;63176;52.678;13.250;2022-11-20T17:09:50;1.60;99.90
7290;DHT22;63176;52.678;13.250;2022-11-20T17:12:15;1.60;99.90
7290;DHT22;63176;52.678;13.250;2022-11-20T17:14:41;1.70;99.90
7290;DHT22;63176;52.678;13.250;2022-11-20T17:17:06;1.70;99.90
7290;DHT22;63176;52.678;13.250;2022-11-20T17:19:32;1.50;99.90
7290;DHT22;63176;52.678;13.250;2022-11-20T17:21:58;1.40;99.90